Time;durP1;ratioP1;P1;durP2;ratioP2;P2;SDS_P1;SDS_P2;PMS_P1;PMS_P2;Temp;Humidity;BMP_temperature;BMP_pressure;BME280_temperature;BME280_humidity;BME280_pressure;Samples;Min_cycle;Max_cycle;Signal;HPM_P1;HPM_P2
2021/12/30 00:00:59;;;;;;;43.45;12.95;;;12.00;99.90;;;;;;5072823;28;20020;-73
2021/12/30 00:03:24;;;;;;;40.30;12.15;;;12.00;99.90;;;;;;5072464;28;20511;-72
2021/12/30 00:05:52;;;;;;;47.78;13.75;;;12.00;99.90;;;;;;5073862;28;20052;-73
2021/12/30 00:08:18;;;;;;;36.97;13.05;;;12.00;99.90;;;;;;5073840;28;20044;-73
2021/12/30 00:10:44;;;;;;;41.65;13.57;;;12.00;99.90;;;;;;5072140;28;20024;-73
2021/12/30 00:13:11;;;;;;;45.65;14.02;;;12.00;99.90;;;;;;5072280;28;20028;-74
2021/12/30 00:15:37;;;;;;;47.45;13.55;;;11.90;99.90;;;;;;5073529;28;20017;-73
2021/12/30 00:18:04;;;;;;;39.15;14.50;;;11.90;99.90;;;;;;5073473;28;20027;-72
2021/12/30 00:20:30;;;;;;;46.70;14.27;;;11.90;99.90;;;;;;5072302;28;20021;-74
2021/12/30 00:22:55;;;;;;;38.22;14.00;;;11.90;99.90;;;;;;5072308;28;20028;-73
2021/12/30 00:25:21;;;;;;;46.13;13.90;;;11.90;99.90;;;;;;5073416;28;20095;-73
2021/12/30 00:27:46;;;;;;;46.28;14.93;;;11.90;99.90;;;;;;5088985;28;20059;-73
2021/12/30 00:30:13;;;;;;;42.28;14.23;;;11.80;99.90;;;;;;5072219;28;20091;-74
2021/12/30 00:32:39;;;;;;;46.58;14.20;;;11.80;99.90;;;;;;5073362;28;20024;-72
2021/12/30 00:35:05;;;;;;;46.13;15.32;;;11.80;99.90;;;;;;5072115;28;20029;-73
2021/12/30 00:37:31;;;;;;;40.55;14.77;;;11.80;99.90;;;;;;5073610;28;20104;-73
2021/12/30 00:39:56;;;;;;;51.42;15.32;;;11.70;99.90;;;;;;5071821;28;20103;-73
2021/12/30 00:42:22;;;;;;;43.25;14.10;;;11.70;99.90;;;;;;5073251;28;20028;-73
2021/12/30 00:44:47;;;;;;;38.78;14.15;;;11.70;99.90;;;;;;5088820;28;20024;-73
2021/12/30 00:47:13;;;;;;;53.03;15.35;;;11.70;99.90;;;;;;5055021;28;20025;-73
2021/12/30 00:49:38;;;;;;;54.33;14.90;;;11.80;99.90;;;;;;5072030;28;20033;-72
2021/12/30 00:52:04;;;;;;;54.65;16.65;;;11.70;99.90;;;;;;5073433;28;20063;-73
2021/12/30 00:54:30;;;;;;;42.40;14.57;;;11.70;99.90;;;;;;5072626;28;20435;-74
2021/12/30 00:56:56;;;;;;;41.20;15.02;;;11.60;99.90;;;;;;5072254;28;20099;-74
2021/12/30 00:59:21;;;;;;;45.70;15.05;;;11.60;99.90;;;;;;5071965;28;20024;-74
2021/12/30 01:01:47;;;;;;;43.63;15.75;;;11.70;99.90;;;;;;5074253;28;20485;-74
2021/12/30 01:04:13;;;;;;;40.65;15.95;;;11.70;99.90;;;;;;5075484;28;20036;-73
2021/12/30 01:06:38;;;;;;;55.10;17.85;;;11.60;99.90;;;;;;5076887;28;20495;-73
2021/12/30 01:09:05;;;;;;;51.95;17.30;;;11.70;99.90;;;;;;5076819;28;20024;-74
2021/12/30 01:11:31;;;;;;;52.13;17.75;;;11.70;99.90;;;;;;5075388;28;20031;-74
2021/12/30 01:14:03;;;;;;;48.53;18.08;;;11.80;99.90;;;;;;5076453;28;20021;-74
2021/12/30 01:16:30;;;;;;;52.70;18.60;;;11.80;99.90;;;;;;5076739;28;20020;-73
2021/12/30 01:19:14;;;;;;;44.88;19.17;;;11.70;99.90;;;;;;5091789;28;20107;-74
2021/12/30 01:21:40;;;;;;;47.90;20.10;;;11.70;99.90;;;;;;5076674;28;20116;-74
2021/12/30 01:24:06;;;;;;;55.30;21.17;;;11.70;99.90;;;;;;5076036;28;20112;-74
2021/12/30 01:26:31;;;;;;;59.42;22.35;;;11.70;99.90;;;;;;5075070;28;20124;-73
2021/12/30 01:28:57;;;;;;;61.42;22.52;;;11.70;99.90;;;;;;5075054;28;20028;-74
2021/12/30 01:31:22;;;;;;;57.63;23.88;;;11.60;99.90;;;;;;5076449;28;20078;-74
2021/12/30 01:33:48;;;;;;;61.53;24.70;;;11.60;99.90;;;;;;5076039;28;20028;-72
2021/12/30 01:36:14;;;;;;;66.05;24.60;;;11.60;99.90;;;;;;5076398;28;20027;-73
2021/12/30 01:38:42;;;;;;;57.47;24.20;;;11.60;99.90;;;;;;5075191;28;20410;-72
2021/12/30 01:41:09;;;;;;;63.78;25.85;;;11.60;99.90;;;;;;5074854;28;20342;-74
2021/12/30 01:43:36;;;;;;;53.67;24.90;;;11.60;99.90;;;;;;5074852;28;20035;-73
2021/12/30 01:46:04;;;;;;;62.35;25.52;;;11.60;99.90;;;;;;5076223;28;20029;-73
2021/12/30 01:48:29;;;;;;;65.15;27.10;;;11.60;99.90;;;;;;5075873;28;20471;-73
2021/12/30 01:50:55;;;;;;;53.67;26.17;;;11.60;99.90;;;;;;5075533;28;20060;-72
2021/12/30 01:53:21;;;;;;;64.57;27.08;;;11.60;99.90;;;;;;5074427;28;20051;-73
2021/12/30 01:55:47;;;;;;;59.25;26.35;;;11.60;99.90;;;;;;5075750;28;20112;-72
2021/12/30 01:58:13;;;;;;;58.10;25.88;;;11.60;99.90;;;;;;5075998;28;20032;-73
2021/12/30 02:00:42;;;;;;;62.50;26.42;;;11.60;99.90;;;;;;5075397;28;20020;-73
2021/12/30 02:03:09;;;;;;;67.28;25.25;;;11.70;99.90;;;;;;5074371;28;20028;-74
2021/12/30 02:05:36;;;;;;;58.47;25.10;;;11.60;99.90;;;;;;5075606;28;20020;-73
2021/12/30 02:08:03;;;;;;;59.10;24.45;;;11.70;99.90;;;;;;5074347;28;20027;-73
2021/12/30 02:10:28;;;;;;;58.85;23.73;;;11.70;99.90;;;;;;5074555;28;20027;-72
2021/12/30 02:12:54;;;;;;;60.05;23.23;;;11.60;99.90;;;;;;5074146;28;20020;-73
2021/12/30 02:15:20;;;;;;;56.08;22.48;;;11.60;99.90;;;;;;5074149;28;20088;-72
2021/12/30 02:17:49;;;;;;;59.80;22.33;;;11.60;99.90;;;;;;5074154;28;20496;-73
2021/12/30 02:20:51;;;;;;;53.33;21.23;;;11.60;99.90;;;;;;5075284;28;20078;-73
2021/12/30 02:23:24;;;;;;;58.63;21.20;;;11.60;99.90;;;;;;5090707;28;20409;-72
2021/12/30 02:25:54;;;;;;;44.10;19.60;;;11.60;99.90;;;;;;5074418;28;20474;-73
2021/12/30 02:28:23;;;;;;;60.28;21.00;;;11.60;99.90;;;;;;5075394;28;20033;-72
2021/12/30 02:30:49;;;;;;;56.03;20.60;;;11.60;99.90;;;;;;5075289;28;20496;-72
2021/12/30 02:33:14;;;;;;;46.00;19.73;;;11.60;99.90;;;;;;5090219;28;20029;-72
2021/12/30 02:35:40;;;;;;;60.53;20.13;;;11.60;99.90;;;;;;5074063;28;20025;-73
2021/12/30 02:38:06;;;;;;;56.20;20.30;;;11.60;99.90;;;;;;5075161;28;20020;-73
2021/12/30 02:40:38;;;;;;;58.38;20.08;;;11.60;99.90;;;;;;5090181;28;20495;-72
2021/12/30 02:43:06;;;;;;;50.88;21.20;;;11.70;99.90;;;;;;5090205;28;20031;-72
2021/12/30 02:45:32;;;;;;;53.13;19.48;;;11.60;99.90;;;;;;5074778;28;20024;-72
2021/12/30 02:47:57;;;;;;;45.72;19.52;;;11.70;99.90;;;;;;5073207;28;20055;-72
2021/12/30 02:50:23;;;;;;;60.10;21.05;;;11.60;99.90;;;;;;5073190;28;20050;-73
2021/12/30 02:52:49;;;;;;;49.22;20.17;;;11.60;99.90;;;;;;5074366;28;20052;-73
2021/12/30 02:55:15;;;;;;;51.92;18.95;;;11.70;99.90;;;;;;5056278;28;20036;-73
2021/12/30 02:57:40;;;;;;;48.85;20.45;;;11.60;99.90;;;;;;5089845;28;20032;-72
2021/12/30 03:00:09;;;;;;;49.58;20.33;;;11.70;99.90;;;;;;5073303;28;20412;-72
2021/12/30 03:02:37;;;;;;;48.45;19.98;;;11.60;99.90;;;;;;5073262;28;20028;-73
2021/12/30 03:05:05;;;;;;;48.78;20.98;;;11.60;99.90;;;;;;5073492;28;20078;-72
2021/12/30 03:07:31;;;;;;;50.03;19.33;;;11.60;99.90;;;;;;5089702;28;20025;-72
2021/12/30 03:09:56;;;;;;;49.03;19.95;;;11.70;99.90;;;;;;5074577;28;20378;-72
2021/12/30 03:12:22;;;;;;;56.63;21.33;;;11.60;99.90;;;;;;5073038;28;20386;-72
2021/12/30 03:14:47;;;;;;;46.70;21.17;;;11.60;99.90;;;;;;5073852;28;20032;-72
2021/12/30 03:17:13;;;;;;;56.22;20.30;;;11.70;99.90;;;;;;5074141;28;20016;-72
2021/12/30 03:19:38;;;;;;;52.08;21.75;;;11.70;99.90;;;;;;5089454;28;20029;-72
2021/12/30 03:22:04;;;;;;;55.42;22.10;;;11.70;99.90;;;;;;5072915;28;20424;-72
2021/12/30 03:24:31;;;;;;;60.15;21.77;;;11.70;99.90;;;;;;5055477;28;20381;-72
2021/12/30 03:26:56;;;;;;;64.97;22.55;;;11.70;99.90;;;;;;5074378;28;20024;-72
2021/12/30 03:29:22;;;;;;;59.67;21.65;;;11.70;99.90;;;;;;5073134;28;20025;-72
2021/12/30 03:31:47;;;;;;;63.30;23.10;;;11.70;99.90;;;;;;5074254;28;20389;-72
2021/12/30 03:34:13;;;;;;;52.00;21.77;;;11.70;99.90;;;;;;5072466;28;20104;-72
2021/12/30 03:36:39;;;;;;;56.40;22.83;;;11.80;99.90;;;;;;5073644;28;20031;-72
2021/12/30 03:39:05;;;;;;;56.70;21.85;;;11.70;99.90;;;;;;5074182;28;20461;-72
2021/12/30 03:41:31;;;;;;;54.60;22.20;;;11.70;99.90;;;;;;5074174;28;20021;-72
2021/12/30 03:44:00;;;;;;;62.00;21.38;;;11.70;99.90;;;;;;5072890;28;20469;-72
2021/12/30 03:46:26;;;;;;;63.08;22.50;;;11.70;99.90;;;;;;5073826;28;20032;-72
2021/12/30 03:48:52;;;;;;;56.45;21.27;;;11.70;99.90;;;;;;5072291;28;20125;-73
2021/12/30 03:51:22;;;;;;;54.08;21.58;;;11.80;99.90;;;;;;5073755;28;20180;-73
2021/12/30 03:53:51;;;;;;;60.22;21.05;;;11.80;99.90;;;;;;5073215;28;20037;-72
2021/12/30 03:56:20;;;;;;;57.17;22.00;;;11.70;99.90;;;;;;5072595;28;20029;-72
2021/12/30 03:58:46;;;;;;;57.28;21.95;;;11.70;99.90;;;;;;5072494;28;20064;-72
2021/12/30 04:01:14;;;;;;;66.60;21.55;;;11.70;99.90;;;;;;5073418;28;20028;-72
2021/12/30 04:03:41;;;;;;;66.18;21.65;;;11.60;99.90;;;;;;5088989;28;20031;-72
2021/12/30 04:06:07;;;;;;;67.50;22.73;;;11.60;99.90;;;;;;5073934;28;20111;-73
2021/12/30 04:08:33;;;;;;;78.55;24.00;;;11.60;99.90;;;;;;5073882;28;20108;-72
2021/12/30 04:10:59;;;;;;;70.07;23.40;;;11.50;99.90;;;;;;5073326;28;20036;-72
2021/12/30 04:13:24;;;;;;;69.00;22.33;;;11.50;99.90;;;;;;5055178;28;20082;-73
2021/12/30 04:15:50;;;;;;;72.35;24.42;;;11.50;99.90;;;;;;5073552;28;20020;-73
2021/12/30 04:18:16;;;;;;;69.07;24.92;;;11.50;99.90;;;;;;5073262;28;20109;-73
2021/12/30 04:20:41;;;;;;;79.85;25.52;;;11.50;99.90;;;;;;5073758;28;20052;-72
2021/12/30 04:23:07;;;;;;;81.75;25.65;;;11.40;99.90;;;;;;5088776;28;20444;-73
2021/12/30 04:25:34;;;;;;;76.75;26.30;;;11.40;99.90;;;;;;5073516;28;20024;-72
2021/12/30 04:28:00;;;;;;;81.07;25.70;;;11.40;99.90;;;;;;5072524;28;20109;-72
2021/12/30 04:30:26;;;;;;;79.43;26.45;;;11.40;99.90;;;;;;5073413;28;20100;-73
2021/12/30 04:32:52;;;;;;;82.78;27.23;;;11.50;99.90;;;;;;5072221;28;20017;-73
2021/12/30 04:35:18;;;;;;;74.07;26.35;;;11.40;99.90;;;;;;5073681;28;20048;-73
2021/12/30 04:37:43;;;;;;;77.05;26.75;;;11.40;99.90;;;;;;5092560;28;20385;-72
2021/12/30 04:40:10;;;;;;;83.15;28.25;;;11.40;99.90;;;;;;5075983;28;20358;-73
2021/12/30 04:42:36;;;;;;;71.97;26.40;;;11.40;99.90;;;;;;5077098;28;20060;-73
2021/12/30 04:45:03;;;;;;;75.40;23.58;;;11.50;99.90;;;;;;5076760;28;20107;-73
2021/12/30 04:47:28;;;;;;;82.43;25.15;;;11.50;99.90;;;;;;5077303;28;20048;-73
2021/12/30 04:49:56;;;;;;;88.68;24.55;;;11.40;99.90;;;;;;5076925;28;20133;-72
2021/12/30 04:52:22;;;;;;;73.82;24.83;;;11.50;99.90;;;;;;5076691;28;20024;-73
2021/12/30 04:54:48;;;;;;;81.65;26.20;;;11.50;99.90;;;;;;5077018;28;20029;-72
2021/12/30 04:57:14;;;;;;;80.88;26.88;;;11.50;99.90;;;;;;5075688;28;20013;-73
2021/12/30 04:59:39;;;;;;;79.93;25.88;;;11.50;99.90;;;;;;5075265;28;20116;-72
2021/12/30 05:02:05;;;;;;;85.45;26.65;;;11.50;99.90;;;;;;5076416;28;20029;-72
2021/12/30 05:04:30;;;;;;;86.07;25.13;;;11.50;99.90;;;;;;5076399;28;20024;-72
2021/12/30 05:06:56;;;;;;;85.75;27.00;;;11.50;99.90;;;;;;5091983;28;20078;-72
2021/12/30 05:09:21;;;;;;;77.70;25.58;;;11.50;99.90;;;;;;5076571;28;20025;-72
2021/12/30 05:11:47;;;;;;;83.00;26.35;;;11.50;99.90;;;;;;5092707;28;20032;-72
2021/12/30 05:14:13;;;;;;;95.05;29.55;;;11.60;99.90;;;;;;5075260;28;20025;-72
2021/12/30 05:16:39;;;;;;;94.38;28.88;;;11.60;99.90;;;;;;5076158;28;20035;-72
2021/12/30 05:19:05;;;;;;;89.40;27.80;;;11.60;99.90;;;;;;5058212;28;20028;-72
2021/12/30 05:21:32;;;;;;;84.43;26.02;;;11.70;99.90;;;;;;5076710;28;20020;-72
2021/12/30 05:23:57;;;;;;;79.75;25.60;;;11.70;99.90;;;;;;5075493;28;20021;-72
2021/12/30 05:26:27;;;;;;;73.45;26.10;;;11.70;99.90;;;;;;5075156;28;20036;-72
2021/12/30 05:28:54;;;;;;;66.45;22.92;;;11.80;99.90;;;;;;5076033;28;20025;-72
2021/12/30 05:31:19;;;;;;;76.72;23.65;;;11.80;99.90;;;;;;5091550;28;20030;-72
2021/12/30 05:33:45;;;;;;;67.60;23.58;;;11.80;99.90;;;;;;5076072;28;20024;-72
2021/12/30 05:36:10;;;;;;;70.43;24.52;;;11.80;99.90;;;;;;5074977;28;20354;-72
2021/12/30 05:38:36;;;;;;;75.63;24.52;;;11.80;99.90;;;;;;5075175;28;20025;-71
2021/12/30 05:41:01;;;;;;;74.13;24.00;;;11.80;99.90;;;;;;5076538;28;20444;-72
2021/12/30 05:43:27;;;;;;;71.78;23.90;;;11.90;99.90;;;;;;5076289;28;20020;-72
2021/12/30 05:45:52;;;;;;;72.10;23.67;;;11.90;99.90;;;;;;5076191;28;20032;-72
2021/12/30 05:48:18;;;;;;;78.57;23.98;;;11.90;99.90;;;;;;5075828;28;20086;-73
2021/12/30 05:50:44;;;;;;;68.07;22.25;;;11.90;99.90;;;;;;5075907;28;20031;-72
2021/12/30 05:53:09;;;;;;;66.03;22.85;;;11.90;99.90;;;;;;5074508;28;20054;-72
2021/12/30 05:55:35;;;;;;;63.50;21.88;;;11.90;99.90;;;;;;5075765;28;20378;-72
2021/12/30 05:58:00;;;;;;;62.97;21.67;;;12.00;99.90;;;;;;5075704;28;20025;-72
2021/12/30 06:00:29;;;;;;;62.50;21.55;;;12.00;99.90;;;;;;5075958;28;20412;-72
2021/12/30 06:02:54;;;;;;;61.08;20.63;;;12.00;99.90;;;;;;5075892;28;20370;-72
2021/12/30 06:05:20;;;;;;;53.38;19.98;;;12.00;99.90;;;;;;5075863;28;20032;-72
2021/12/30 06:07:46;;;;;;;56.05;18.27;;;12.00;99.90;;;;;;5075807;28;20153;-72
2021/12/30 06:10:12;;;;;;;45.22;16.73;;;12.10;99.90;;;;;;5075715;28;20117;-72
2021/12/30 06:12:39;;;;;;;48.15;16.77;;;12.20;99.90;;;;;;5074555;28;20143;-72
2021/12/30 06:15:05;;;;;;;44.47;16.00;;;12.20;99.90;;;;;;5073838;28;20078;-72
2021/12/30 06:17:31;;;;;;;38.20;15.70;;;12.20;99.90;;;;;;5074164;28;20027;-72
2021/12/30 06:19:56;;;;;;;41.15;15.80;;;12.20;99.90;;;;;;5075558;28;20021;-72
2021/12/30 06:22:22;;;;;;;31.95;14.30;;;12.20;99.90;;;;;;5090527;28;20048;-72
2021/12/30 06:24:48;;;;;;;38.80;13.23;;;12.30;99.90;;;;;;5073729;28;20047;-72
2021/12/30 06:27:13;;;;;;;25.73;13.00;;;12.30;99.90;;;;;;5073670;28;20028;-72
2021/12/30 06:29:39;;;;;;;28.77;12.90;;;12.30;99.90;;;;;;5074775;28;20024;-72
2021/12/30 06:32:06;;;;;;;29.73;12.63;;;12.30;99.90;;;;;;5090286;28;20493;-72
2021/12/30 06:34:32;;;;;;;29.60;12.23;;;12.30;99.90;;;;;;5074010;28;20029;-72
2021/12/30 06:36:57;;;;;;;25.85;10.90;;;12.30;99.90;;;;;;5074914;28;20525;-72
2021/12/30 06:39:23;;;;;;;23.33;11.30;;;12.30;99.90;;;;;;5073841;28;20025;-72
2021/12/30 06:41:49;;;;;;;21.83;11.43;;;12.30;99.90;;;;;;5073667;28;20031;-72
2021/12/30 06:44:14;;;;;;;23.15;9.93;;;12.30;99.90;;;;;;5073339;28;20035;-72
2021/12/30 06:46:46;;;;;;;18.05;8.90;;;12.40;99.90;;;;;;5090355;28;20090;-72
2021/12/30 06:49:11;;;;;;;17.00;8.00;;;12.40;99.90;;;;;;5090015;28;20097;-72
2021/12/30 06:51:37;;;;;;;16.00;7.90;;;12.40;99.90;;;;;;5074624;28;20021;-72
2021/12/30 06:54:04;;;;;;;14.13;7.05;;;12.40;99.90;;;;;;5074126;28;20041;-72
2021/12/30 06:56:30;;;;;;;15.63;7.32;;;12.40;99.90;;;;;;5074204;28;20016;-72
2021/12/30 06:58:56;;;;;;;12.73;6.90;;;12.50;99.90;;;;;;5089129;28;20035;-72
2021/12/30 07:01:22;;;;;;;11.52;6.45;;;12.40;99.90;;;;;;5074066;28;20389;-72
2021/12/30 07:03:47;;;;;;;10.98;5.35;;;12.50;99.90;;;;;;5073101;28;20029;-72
2021/12/30 07:06:13;;;;;;;9.98;5.45;;;12.50;99.90;;;;;;5074568;28;20081;-72
2021/12/30 07:08:38;;;;;;;10.10;5.88;;;12.50;99.90;;;;;;5073445;28;20055;-71
2021/12/30 07:11:04;;;;;;;11.50;6.10;;;12.50;99.90;;;;;;5074566;28;20060;-71
2021/12/30 07:13:30;;;;;;;8.93;5.82;;;12.50;99.90;;;;;;5074473;28;20024;-71
2021/12/30 07:15:55;;;;;;;11.05;5.88;;;12.50;99.90;;;;;;5073082;28;20016;-71
2021/12/30 07:18:21;;;;;;;15.70;7.07;;;12.50;99.90;;;;;;5073056;28;20025;-71
2021/12/30 07:20:46;;;;;;;14.90;7.75;;;12.50;99.90;;;;;;5089442;28;20017;-72
2021/12/30 07:23:12;;;;;;;14.57;7.93;;;12.50;99.90;;;;;;5074087;28;20028;-72
2021/12/30 07:25:37;;;;;;;16.65;7.95;;;12.60;99.90;;;;;;5089391;28;20497;-72
2021/12/30 07:28:04;;;;;;;13.90;8.25;;;12.50;99.90;;;;;;5074315;28;20029;-72
2021/12/30 07:30:30;;;;;;;16.95;8.73;;;12.60;99.90;;;;;;5072459;28;20024;-72
2021/12/30 07:32:56;;;;;;;20.40;9.85;;;12.60;99.90;;;;;;5072520;28;20025;-71
2021/12/30 07:35:22;;;;;;;17.73;9.52;;;12.60;99.90;;;;;;5074170;28;20100;-72
2021/12/30 07:37:49;;;;;;;18.15;9.07;;;12.60;99.90;;;;;;5074157;28;20032;-72
2021/12/30 07:40:16;;;;;;;15.95;8.50;;;12.50;99.90;;;;;;5072702;28;20024;-72
2021/12/30 07:42:42;;;;;;;12.73;7.90;;;12.50;99.90;;;;;;5074126;28;20031;-72
2021/12/30 07:45:09;;;;;;;13.63;7.22;;;12.50;99.90;;;;;;5072640;28;20033;-72
2021/12/30 07:47:35;;;;;;;12.80;7.63;;;12.60;99.90;;;;;;5072926;28;20032;-72
2021/12/30 07:50:01;;;;;;;15.93;9.15;;;12.60;99.90;;;;;;5074004;28;20028;-72
2021/12/30 07:52:26;;;;;;;18.05;10.35;;;12.70;99.90;;;;;;5073796;28;20051;-72
2021/12/30 07:54:52;;;;;;;28.38;14.20;;;12.70;99.90;;;;;;5088945;28;20024;-72
2021/12/30 07:57:20;;;;;;;28.20;15.13;;;12.70;99.90;;;;;;5055775;28;20416;-72
2021/12/30 07:59:48;;;;;;;42.70;20.42;;;12.70;99.90;;;;;;5072570;28;20028;-72
2021/12/30 08:02:14;;;;;;;42.97;20.05;;;12.70;99.90;;;;;;5073921;28;20444;-72
2021/12/30 08:04:39;;;;;;;49.92;23.33;;;12.70;99.90;;;;;;5073935;28;20068;-72
2021/12/30 08:07:05;;;;;;;61.20;28.58;;;12.80;99.90;;;;;;5073604;28;20107;-72
2021/12/30 08:09:31;;;;;;;64.05;29.90;;;12.80;99.90;;;;;;5089302;28;20389;-72
2021/12/30 08:11:56;;;;;;;69.40;32.67;;;12.90;99.90;;;;;;5076505;28;20028;-72
2021/12/30 08:14:22;;;;;;;70.15;33.45;;;13.00;99.90;;;;;;5076408;28;20568;-72
2021/12/30 08:16:47;;;;;;;71.95;35.90;;;13.00;99.90;;;;;;5093748;28;20389;-72
2021/12/30 08:19:13;;;;;;;81.00;41.05;;;13.10;99.90;;;;;;5077826;28;20078;-72
2021/12/30 08:21:41;;;;;;;80.45;42.42;;;13.10;99.90;;;;;;5092900;28;20035;-72
2021/12/30 08:24:09;;;;;;;78.65;42.70;;;13.20;99.90;;;;;;5092883;28;20111;-72
2021/12/30 08:26:35;;;;;;;79.07;43.70;;;13.20;99.90;;;;;;5059264;28;20021;-72
2021/12/30 08:29:00;;;;;;;72.20;43.95;;;13.30;99.90;;;;;;5077676;28;20024;-72
2021/12/30 08:31:26;;;;;;;73.20;42.50;;;13.30;99.90;;;;;;5076449;28;20098;-72
2021/12/30 08:33:52;;;;;;;67.88;39.80;;;13.30;99.90;;;;;;5076225;28;20400;-72
2021/12/30 08:36:18;;;;;;;57.38;36.78;;;13.40;99.90;;;;;;5076098;28;20096;-73
2021/12/30 08:38:43;;;;;;;53.65;33.38;;;13.40;99.90;;;;;;5075723;28;20078;-72
2021/12/30 08:41:09;;;;;;;47.63;31.73;;;13.40;99.90;;;;;;5077123;28;20059;-72
2021/12/30 08:43:34;;;;;;;46.72;28.95;;;13.40;99.90;;;;;;5092443;28;20482;-72
2021/12/30 08:46:00;;;;;;;46.00;28.50;;;13.40;99.90;;;;;;5075571;28;20040;-73
2021/12/30 08:48:25;;;;;;;44.28;27.55;;;13.40;99.90;;;;;;5075851;28;20028;-72
2021/12/30 08:50:51;;;;;;;36.47;24.80;;;13.50;99.90;;;;;;5076689;28;20032;-73
2021/12/30 08:53:16;;;;;;;38.00;24.48;;;13.50;99.90;;;;;;5075339;28;20049;-72
2021/12/30 08:55:42;;;;;;;33.25;22.50;;;13.50;99.90;;;;;;5092271;28;20063;-72
2021/12/30 08:58:08;;;;;;;31.38;20.17;;;13.60;99.90;;;;;;5058665;28;20170;-72
2021/12/30 09:00:38;;;;;;;29.35;21.67;;;13.60;99.90;;;;;;5076725;28;20048;-72
2021/12/30 09:03:05;;;;;;;35.20;21.90;;;13.60;99.90;;;;;;5076710;28;20095;-72
2021/12/30 09:05:32;;;;;;;32.92;21.05;;;13.60;99.90;;;;;;5076989;28;20020;-72
2021/12/30 09:07:59;;;;;;;34.60;23.00;;;13.70;99.90;;;;;;5076381;28;20028;-73
2021/12/30 09:10:25;;;;;;;31.95;22.70;;;13.70;99.90;;;;;;5075243;28;20032;-73
2021/12/30 09:12:52;;;;;;;33.25;21.92;;;13.70;99.90;;;;;;5076732;28;20028;-73
2021/12/30 09:15:21;;;;;;;29.92;20.95;;;13.70;99.90;;;;;;5058248;28;20545;-72
2021/12/30 09:17:48;;;;;;;27.50;21.08;;;13.70;99.90;;;;;;5075404;28;20058;-71
2021/12/30 09:20:15;;;;;;;29.42;19.80;;;13.80;99.90;;;;;;5076700;28;20020;-72
2021/12/30 09:22:40;;;;;;;29.27;18.38;;;13.80;99.90;;;;;;5090985;28;20056;-72
2021/12/30 09:25:08;;;;;;;27.38;17.77;;;13.80;99.90;;;;;;5058636;28;20497;-72
2021/12/30 09:27:35;;;;;;;27.45;19.48;;;13.80;99.90;;;;;;5091570;28;20035;-72
2021/12/30 09:30:02;;;;;;;27.52;19.17;;;13.80;99.90;;;;;;5075358;28;20020;-72
2021/12/30 09:32:27;;;;;;;26.65;19.38;;;13.70;99.90;;;;;;5075238;28;20424;-72
2021/12/30 09:34:53;;;;;;;26.50;19.00;;;13.70;99.90;;;;;;5074881;28;20036;-72
2021/12/30 09:37:19;;;;;;;26.30;18.45;;;;;;;;;;5075819;28;20021;-72
2021/12/30 09:39:46;;;;;;;25.27;16.63;;;13.70;99.90;;;;;;5091423;28;20091;-72
2021/12/30 09:42:13;;;;;;;26.10;16.23;;;13.70;99.90;;;;;;5076306;28;20017;-72
2021/12/30 09:44:39;;;;;;;22.67;15.30;;;13.70;99.90;;;;;;5074750;28;20039;-72
2021/12/30 09:47:05;;;;;;;22.02;15.25;;;13.60;99.90;;;;;;5074718;28;20033;-72
2021/12/30 09:49:31;;;;;;;24.08;15.25;;;13.60;99.90;;;;;;5075559;28;20036;-72
2021/12/30 09:51:56;;;;;;;22.83;16.17;;;13.60;99.90;;;;;;5076136;28;20028;-72
2021/12/30 09:54:23;;;;;;;26.95;16.15;;;13.50;99.90;;;;;;5090878;28;20048;-72
2021/12/30 09:56:52;;;;;;;24.33;15.90;;;13.50;99.90;;;;;;5091089;28;20020;-72
2021/12/30 09:59:17;;;;;;;23.08;15.32;;;13.60;99.90;;;;;;5074521;28;20078;-72
2021/12/30 10:01:43;;;;;;;22.02;15.32;;;13.60;99.90;;;;;;5075434;28;20024;-73
2021/12/30 10:04:11;;;;;;;21.15;14.95;;;13.60;99.90;;;;;;5074481;28;20028;-72
2021/12/30 10:06:48;;;;;;;22.77;15.30;;;13.60;99.90;;;;;;5074185;28;20055;-73
2021/12/30 10:09:16;;;;;;;20.50;15.15;;;13.70;99.90;;;;;;5091691;28;20078;-72
2021/12/30 10:11:56;;;;;;;19.48;13.57;;;13.70;99.90;;;;;;5074302;28;20111;-72
2021/12/30 10:14:28;;;;;;;21.42;15.45;;;13.70;99.90;;;;;;5073857;28;20477;-72
2021/12/30 10:17:17;;;;;;;21.77;15.40;;;13.70;99.90;;;;;;5075655;28;20017;-73
2021/12/30 10:19:43;;;;;;;21.33;15.43;;;13.70;99.90;;;;;;5074955;28;20055;-73
2021/12/30 10:22:12;;;;;;;18.77;14.20;;;13.80;99.90;;;;;;5057086;28;20119;-73
2021/12/30 10:24:38;;;;;;;19.05;13.95;;;13.80;99.90;;;;;;5075493;28;20032;-73
2021/12/30 10:27:04;;;;;;;19.42;14.40;;;13.90;99.90;;;;;;5075376;28;20032;-73
2021/12/30 10:29:41;;;;;;;18.50;13.68;;;13.90;99.90;;;;;;5075021;28;20474;-72
2021/12/30 10:32:14;;;;;;;17.45;13.38;;;;;;;;;;5074142;28;20028;-72
2021/12/30 10:35:09;;;;;;;20.48;13.85;;;14.00;99.90;;;;;;5074201;28;20064;-72
2021/12/30 10:37:35;;;;;;;17.58;13.13;;;14.00;99.90;;;;;;5074955;28;20062;-72
2021/12/30 10:40:04;;;;;;;20.08;14.23;;;13.90;99.90;;;;;;5075164;28;20041;-72
2021/12/30 10:42:32;;;;;;;19.63;14.40;;;13.90;99.90;;;;;;5090211;28;20028;-72
2021/12/30 10:45:04;;;;;;;19.42;14.52;;;13.90;99.90;;;;;;5073339;28;20066;-72
2021/12/30 10:47:32;;;;;;;18.92;13.43;;;14.00;99.90;;;;;;5074379;28;20028;-72
2021/12/30 10:50:13;;;;;;;19.25;14.35;;;14.00;99.90;;;;;;5090089;28;20031;-72
2021/12/30 10:52:50;;;;;;;21.77;14.75;;;14.00;99.90;;;;;;5056777;28;20163;-68
2021/12/30 10:55:16;;;;;;;21.02;15.10;;;14.00;99.90;;;;;;5073425;28;20071;-67
2021/12/30 10:57:42;;;;;;;17.38;14.43;;;14.00;99.90;;;;;;5074517;28;20032;-68
2021/12/30 11:00:09;;;;;;;20.15;15.15;;;14.10;99.90;;;;;;5073659;28;20021;-68
2021/12/30 11:02:36;;;;;;;18.35;14.80;;;14.10;99.90;;;;;;5074520;28;20021;-67
2021/12/30 11:05:10;;;;;;;20.60;14.80;;;14.10;99.90;;;;;;5074692;28;20020;-68
2021/12/30 11:07:46;;;;;;;18.73;14.43;;;14.10;99.90;;;;;;5089721;28;20052;-68
2021/12/30 11:10:14;;;;;;;21.58;16.60;;;14.10;99.90;;;;;;5074646;28;20106;-67
2021/12/30 11:12:45;;;;;;;20.10;15.63;;;14.00;99.90;;;;;;5074284;28;20028;-68
2021/12/30 11:15:21;;;;;;;24.52;17.67;;;14.00;99.90;;;;;;5072765;28;20052;-68
2021/12/30 11:17:47;;;;;;;21.00;16.00;;;14.00;99.90;;;;;;5073365;28;20059;-68
2021/12/30 11:20:16;;;;;;;26.13;17.33;;;14.60;99.90;;;;;;5073480;28;20074;-68
2021/12/30 11:22:42;;;;;;;19.70;15.30;;;14.00;99.90;;;;;;5072901;28;20073;-68
2021/12/30 11:25:12;;;;;;;19.77;15.68;;;14.10;99.90;;;;;;5074394;28;20029;-68
2021/12/30 11:27:39;;;;;;;16.75;13.50;;;14.10;99.90;;;;;;5073799;28;20016;-68
2021/12/30 11:30:08;;;;;;;15.75;12.93;;;13.60;99.90;;;;;;5089369;28;20033;-68
2021/12/30 11:32:35;;;;;;;15.38;12.23;;;14.10;99.90;;;;;;5073904;28;20447;-68
2021/12/30 11:35:03;;;;;;;13.18;11.10;;;14.10;99.90;;;;;;5074182;28;20027;-68
2021/12/30 11:37:29;;;;;;;12.85;10.05;;;14.20;99.90;;;;;;5073909;28;20017;-68
2021/12/30 11:39:58;;;;;;;10.85;9.40;;;14.20;99.90;;;;;;5072616;28;20095;-68
2021/12/30 11:42:36;;;;;;;10.20;8.68;;;14.30;99.90;;;;;;5072253;28;20545;-68
2021/12/30 11:45:03;;;;;;;10.40;8.35;;;14.30;99.90;;;;;;5073604;28;20051;-68
2021/12/30 11:47:36;;;;;;;11.82;8.95;;;14.30;99.90;;;;;;5072830;28;20373;-68
2021/12/30 11:50:32;;;;;;;11.63;7.32;;;14.30;99.90;;;;;;5073743;28;20169;-68
2021/12/30 11:56:00;;;;;;;9.35;7.53;;;14.40;99.90;;;;;;5112453;27;20388;-68
2021/12/30 12:01:20;;;;;;;10.00;7.15;;;14.50;99.90;;;;;;5071617;28;20737;-68
2021/12/30 12:03:54;;;;;;;10.48;6.30;;;14.60;99.90;;;;;;5071024;28;20021;-69
2021/12/30 12:06:32;;;;;;;8.05;5.20;;;14.60;99.90;;;;;;5070659;28;20055;-69
2021/12/30 12:09:32;;;;;;;6.88;5.50;;;14.70;99.90;;;;;;5069978;28;20025;-68
2021/12/30 12:12:01;;;;;;;8.52;5.57;;;14.80;99.90;;;;;;5070865;28;20024;-69
2021/12/30 12:14:31;;;;;;;9.10;5.55;;;14.80;99.90;;;;;;5069926;28;20021;-69
2021/12/30 12:17:07;;;;;;;9.55;5.38;;;14.80;99.90;;;;;;5071230;28;20029;-70
2021/12/30 12:19:40;;;;;;;7.82;5.25;;;14.70;99.90;;;;;;5069162;28;20116;-69
2021/12/30 12:22:26;;;;;;;7.25;4.68;;;14.70;99.90;;;;;;5071057;28;20017;-68
2021/12/30 12:25:13;;;;;;;7.85;4.53;;;14.70;99.90;;;;;;5070664;28;20029;-69
2021/12/30 12:27:45;;;;;;;10.52;4.63;;;14.70;99.90;;;;;;5070564;28;20027;-69
2021/12/30 12:30:33;;;;;;;7.20;4.85;;;14.70;99.90;;;;;;5070506;28;20055;-69
2021/12/30 12:33:20;;;;;;;5.32;4.47;;;14.70;99.90;;;;;;5069280;28;20033;-68
2021/12/30 12:35:46;;;;;;;8.52;4.90;;;14.70;99.90;;;;;;5069999;28;20107;-68
2021/12/30 12:38:12;;;;;;;8.32;4.75;;;14.70;99.90;;;;;;5069650;28;20065;-69